createdAt,value
2023-08-15T00:00:18.408Z,18.73
2023-08-15T00:01:22.772Z,11.93
2023-08-15T00:02:26.545Z,14.97
2023-08-15T00:03:30.465Z,11.02
2023-08-15T00:04:34.292Z,13.27
2023-08-15T00:05:39.024Z,12.52
2023-08-15T00:06:42.677Z,12.25
2023-08-15T00:07:46.345Z,12.30
2023-08-15T00:08:50.369Z,13.07
2023-08-15T00:09:54.093Z,13.40
2023-08-15T00:10:57.797Z,15.32
2023-08-15T00:12:01.514Z,15.55
2023-08-15T00:13:05.475Z,14.97
2023-08-15T00:14:10.903Z,12.27
2023-08-15T00:15:14.680Z,12.93
2023-08-15T00:16:18.409Z,12.75
2023-08-15T00:17:22.395Z,12.48
2023-08-15T00:18:26.285Z,12.40
2023-08-15T00:19:29.997Z,13.45
2023-08-15T00:20:33.873Z,13.18
2023-08-15T00:21:37.711Z,14.32
2023-08-15T00:22:41.477Z,14.32
2023-08-15T00:23:45.170Z,12.80
2023-08-15T00:24:48.813Z,10.98
2023-08-15T00:25:52.486Z,11.27
2023-08-15T00:26:56.383Z,14.38
2023-08-15T00:28:00.116Z,12.98
2023-08-15T00:29:03.891Z,14.03
2023-08-15T00:30:10.640Z,12.57
2023-08-15T00:31:14.462Z,13.10
2023-08-15T00:32:18.311Z,10.82
2023-08-15T00:33:21.986Z,13.27
2023-08-15T00:34:25.651Z,10.93
2023-08-15T00:35:29.338Z,10.90
2023-08-15T00:36:33.127Z,11.48
2023-08-15T00:37:37.138Z,14.77
2023-08-15T00:38:41.046Z,13.48
2023-08-15T00:39:44.775Z,11.27
2023-08-15T00:40:48.642Z,10.60
2023-08-15T00:41:52.401Z,10.30
2023-08-15T00:42:56.224Z,14.23
2023-08-15T00:43:59.921Z,13.70
2023-08-15T00:45:03.633Z,11.47
2023-08-15T00:46:09.702Z,13.38
2023-08-15T00:47:15.201Z,11.10
2023-08-15T00:48:19.293Z,11.25
2023-08-15T00:49:23.266Z,9.65
2023-08-15T00:50:27.320Z,12.00
2023-08-15T00:51:31.264Z,11.48
2023-08-15T00:52:35.366Z,10.77
2023-08-15T00:53:39.517Z,11.13
2023-08-15T00:54:45.131Z,10.93
2023-08-15T00:55:48.936Z,10.47
2023-08-15T00:56:52.770Z,11.88
2023-08-15T00:57:57.243Z,10.75
2023-08-15T00:59:02.549Z,13.13
2023-08-15T01:00:07.634Z,12.27
2023-08-15T01:01:19.313Z,12.67
2023-08-15T01:02:23.195Z,12.40
2023-08-15T01:03:27.238Z,12.13
2023-08-15T01:04:32.340Z,11.60
2023-08-15T01:05:36.838Z,10.43
2023-08-15T01:06:40.528Z,10.23
2023-08-15T01:07:45.092Z,10.98
2023-08-15T01:08:49.514Z,13.45
2023-08-15T01:09:53.240Z,9.68
2023-08-15T01:10:57.053Z,10.63
2023-08-15T01:12:13.689Z,11.60
2023-08-15T01:13:24.545Z,9.68
2023-08-15T01:14:32.634Z,11.70
2023-08-15T01:15:41.584Z,9.48
2023-08-15T01:16:49.874Z,13.00
2023-08-15T01:18:02.962Z,11.23
2023-08-15T01:19:12.487Z,12.10
2023-08-15T01:20:22.408Z,12.27
2023-08-15T01:21:31.205Z,10.38
2023-08-15T01:22:38.287Z,12.20
2023-08-15T01:23:44.860Z,9.10
2023-08-15T01:24:48.664Z,9.77
2023-08-15T01:25:56.248Z,9.77
2023-08-15T01:27:00.059Z,11.07
2023-08-15T01:28:03.982Z,10.18
2023-08-15T01:29:07.672Z,11.83
2023-08-15T01:30:13.285Z,12.45
2023-08-15T01:31:20.740Z,11.63
2023-08-15T01:32:41.364Z,10.77
2023-08-15T01:33:52.570Z,11.65
2023-08-15T01:35:02.792Z,12.57
2023-08-15T01:36:10.768Z,11.15
2023-08-15T01:37:23.870Z,10.40
2023-08-15T01:38:34.603Z,10.90
2023-08-15T01:39:43.344Z,10.30
2023-08-15T01:40:50.721Z,10.90
2023-08-15T01:41:55.538Z,12.23
2023-08-15T01:43:02.551Z,12.07
2023-08-15T01:44:08.372Z,9.60
2023-08-15T01:45:13.495Z,8.98
2023-08-15T01:46:17.353Z,9.47
2023-08-15T01:47:22.023Z,9.95
2023-08-15T01:48:26.174Z,10.13
2023-08-15T01:49:30.048Z,9.40
2023-08-15T01:50:33.792Z,13.00
2023-08-15T01:51:37.525Z,9.43
2023-08-15T01:52:41.182Z,9.85
2023-08-15T01:53:45.010Z,9.90
2023-08-15T01:54:50.490Z,9.85
2023-08-15T01:55:54.170Z,10.75
2023-08-15T01:56:57.832Z,9.63
2023-08-15T01:58:01.800Z,8.88
2023-08-15T01:59:05.725Z,8.82
2023-08-15T02:00:10.341Z,10.00
2023-08-15T02:01:14.079Z,9.00
2023-08-15T02:02:17.758Z,9.97
2023-08-15T02:03:21.501Z,9.45
2023-08-15T02:04:25.206Z,8.07
2023-08-15T02:05:29.019Z,8.80
2023-08-15T02:06:32.785Z,8.88
2023-08-15T02:07:36.502Z,9.13
2023-08-15T02:08:40.157Z,7.78
2023-08-15T02:09:43.894Z,9.45
2023-08-15T02:10:49.199Z,11.15
2023-08-15T02:11:53.049Z,9.25
2023-08-15T02:12:56.772Z,8.47
2023-08-15T02:14:01.362Z,8.75
2023-08-15T02:15:05.575Z,8.38
2023-08-15T02:16:09.416Z,7.85
2023-08-15T02:17:13.217Z,7.25
2023-08-15T02:18:16.941Z,7.77
2023-08-15T02:19:20.735Z,8.63
2023-08-15T02:20:24.455Z,8.43
2023-08-15T02:21:28.170Z,7.25
2023-08-15T02:22:33.005Z,8.07
2023-08-15T02:23:36.736Z,9.73
2023-08-15T02:24:40.437Z,9.40
2023-08-15T02:25:45.044Z,9.73
2023-08-15T02:26:50.408Z,8.00
2023-08-15T02:27:54.118Z,8.82
2023-08-15T02:28:57.855Z,7.07
2023-08-15T02:30:01.549Z,8.20
2023-08-15T02:31:05.264Z,9.10
2023-08-15T02:32:09.191Z,7.90
2023-08-15T02:33:12.893Z,9.20
2023-08-15T02:34:18.771Z,9.13
2023-08-15T02:35:22.462Z,10.60
2023-08-15T02:36:26.163Z,8.80
2023-08-15T02:37:29.839Z,8.55
2023-08-15T02:38:33.586Z,8.77
2023-08-15T02:39:37.307Z,7.03
2023-08-15T02:40:44.259Z,9.90
2023-08-15T02:41:52.508Z,9.75
2023-08-15T02:42:56.215Z,9.43
2023-08-15T02:43:59.858Z,7.57
2023-08-15T02:45:03.485Z,10.30
2023-08-15T02:46:07.266Z,9.00
2023-08-15T02:47:10.987Z,10.13
2023-08-15T02:48:14.722Z,8.50
2023-08-15T02:49:18.437Z,9.27
2023-08-15T02:50:22.121Z,9.13
2023-08-15T02:51:25.894Z,8.98
2023-08-15T02:52:29.547Z,8.40
2023-08-15T02:53:33.255Z,7.93
2023-08-15T02:54:37.037Z,9.27
2023-08-15T02:55:40.776Z,10.07
2023-08-15T02:56:44.476Z,8.25
2023-08-15T02:57:49.786Z,8.98
2023-08-15T02:58:53.423Z,11.57
2023-08-15T02:59:57.128Z,8.15
2023-08-15T03:01:00.887Z,11.03
2023-08-15T03:02:04.657Z,8.75
2023-08-15T03:03:08.507Z,9.13
2023-08-15T03:04:12.221Z,9.80
2023-08-15T03:05:15.967Z,7.80
2023-08-15T03:06:19.658Z,8.37
2023-08-15T03:07:23.617Z,8.45
2023-08-15T03:08:27.497Z,8.10
2023-08-15T03:09:31.157Z,9.35
2023-08-15T03:10:35.247Z,8.10
2023-08-15T03:11:38.996Z,8.57
2023-08-15T03:12:42.737Z,9.63
2023-08-15T03:13:47.998Z,8.82
2023-08-15T03:14:51.814Z,8.52
2023-08-15T03:15:56.296Z,7.95
2023-08-15T03:16:59.957Z,8.73
2023-08-15T03:18:03.667Z,8.80
2023-08-15T03:19:07.430Z,8.70
2023-08-15T03:20:11.813Z,8.30
2023-08-15T03:21:15.583Z,8.70
2023-08-15T03:22:19.306Z,10.30
2023-08-15T03:23:23.064Z,11.00
2023-08-15T03:24:29.271Z,8.50
2023-08-15T03:25:33.006Z,9.23
2023-08-15T03:26:36.707Z,8.25
2023-08-15T03:27:40.357Z,9.97
2023-08-15T03:28:44.101Z,8.32
2023-08-15T03:29:49.482Z,8.70
2023-08-15T03:30:53.383Z,9.23
2023-08-15T03:31:57.218Z,9.00
2023-08-15T03:33:01.243Z,9.30
2023-08-15T03:34:05.197Z,8.27
2023-08-15T03:35:09.819Z,8.15
2023-08-15T03:36:13.459Z,9.45
2023-08-15T03:37:17.162Z,10.57
2023-08-15T03:38:21.612Z,9.17
2023-08-15T03:39:25.437Z,8.57
2023-08-15T03:40:29.171Z,9.35
2023-08-15T03:41:32.826Z,8.13
2023-08-15T03:42:36.611Z,9.38
2023-08-15T03:43:40.279Z,8.73
2023-08-15T03:44:44.139Z,9.27
2023-08-15T03:45:49.555Z,8.95
2023-08-15T03:46:53.302Z,9.52
2023-08-15T03:47:57.040Z,10.52
2023-08-15T03:49:00.923Z,10.53
2023-08-15T03:50:04.889Z,10.65
2023-08-15T03:51:08.861Z,9.48
2023-08-15T03:52:12.534Z,10.32
2023-08-15T03:53:16.221Z,10.23
2023-08-15T03:54:19.881Z,12.03
2023-08-15T03:55:23.683Z,8.77
2023-08-15T03:56:27.330Z,10.48
2023-08-15T03:57:31.021Z,9.27
2023-08-15T03:58:34.757Z,12.82
2023-08-15T03:59:38.404Z,7.40
2023-08-15T04:00:42.080Z,9.80
2023-08-15T04:01:47.423Z,10.10
2023-08-15T04:02:51.730Z,9.82
2023-08-15T04:03:55.583Z,8.30
2023-08-15T04:04:59.306Z,9.00
2023-08-15T04:06:02.950Z,9.00
2023-08-15T04:07:06.704Z,7.93
2023-08-15T04:08:10.410Z,8.95
2023-08-15T04:09:14.069Z,10.02
2023-08-15T04:10:17.816Z,8.13
2023-08-15T04:11:21.482Z,8.80
2023-08-15T04:12:25.144Z,9.98
2023-08-15T04:13:28.845Z,7.68
2023-08-15T04:14:32.480Z,8.88
2023-08-15T04:15:36.330Z,8.53
2023-08-15T04:16:40.044Z,9.75
2023-08-15T04:17:45.498Z,9.70
2023-08-15T04:18:49.222Z,8.10
2023-08-15T04:19:53.060Z,7.55
2023-08-15T04:20:56.745Z,9.33
2023-08-15T04:22:00.432Z,7.93
2023-08-15T04:23:04.163Z,8.80
2023-08-15T04:24:08.499Z,8.00
2023-08-15T04:25:12.157Z,7.90
2023-08-15T04:26:15.875Z,8.27
2023-08-15T04:27:19.982Z,8.63
2023-08-15T04:28:23.934Z,9.10
2023-08-15T04:29:27.668Z,7.97
2023-08-15T04:30:31.700Z,10.35
2023-08-15T04:31:35.382Z,9.60
2023-08-15T04:32:39.228Z,11.15
2023-08-15T04:33:44.621Z,7.63
2023-08-15T04:34:49.899Z,8.00
2023-08-15T04:35:53.777Z,8.65
2023-08-15T04:36:57.588Z,8.67
2023-08-15T04:38:01.368Z,8.60
2023-08-15T04:39:05.164Z,8.50
2023-08-15T04:40:14.006Z,8.65
2023-08-15T04:41:17.751Z,8.05
2023-08-15T04:42:21.468Z,7.47
2023-08-15T04:43:25.127Z,10.43
2023-08-15T04:44:28.933Z,7.35
2023-08-15T04:45:32.644Z,8.65
2023-08-15T04:46:36.314Z,7.47
2023-08-15T04:47:39.990Z,8.30
2023-08-15T04:48:45.371Z,7.88
2023-08-15T04:49:50.256Z,8.45
2023-08-15T04:50:54.116Z,7.78
2023-08-15T04:51:58.217Z,8.32
2023-08-15T04:53:01.927Z,9.13
2023-08-15T04:54:05.716Z,9.52
2023-08-15T04:55:10.278Z,8.95
2023-08-15T04:56:13.966Z,9.25
2023-08-15T04:57:17.640Z,9.02
2023-08-15T04:58:21.338Z,8.40
2023-08-15T04:59:25.011Z,10.40
2023-08-15T05:00:28.692Z,8.57
2023-08-15T05:01:32.459Z,7.80
2023-08-15T05:02:36.299Z,7.72
2023-08-15T05:03:40.077Z,7.87
2023-08-15T05:04:45.428Z,8.43
2023-08-15T05:05:50.131Z,9.60
2023-08-15T05:06:53.965Z,9.00
2023-08-15T05:07:57.715Z,8.30
2023-08-15T05:09:01.470Z,8.83
2023-08-15T05:10:05.755Z,9.38
2023-08-15T05:11:09.568Z,9.40
2023-08-15T05:12:13.265Z,8.23
2023-08-15T05:13:16.934Z,8.73
2023-08-15T05:14:20.547Z,8.80
2023-08-15T05:15:24.215Z,8.90
2023-08-15T05:16:27.981Z,9.18
2023-08-15T05:17:32.311Z,10.35
2023-08-15T05:18:36.260Z,9.75
2023-08-15T05:19:39.923Z,9.90
2023-08-15T05:20:47.209Z,9.32
2023-08-15T05:21:50.898Z,9.27
2023-08-15T05:22:54.724Z,8.43
2023-08-15T05:23:58.449Z,8.50
2023-08-15T05:25:02.199Z,8.10
2023-08-15T05:26:06.040Z,9.30
2023-08-15T05:27:13.011Z,7.90
2023-08-15T05:28:16.712Z,10.25
2023-08-15T05:29:20.454Z,10.45
2023-08-15T05:30:24.173Z,8.30
2023-08-15T05:31:28.759Z,9.57
2023-08-15T05:32:32.446Z,9.18
2023-08-15T05:33:36.168Z,7.35
2023-08-15T05:34:39.901Z,8.75
2023-08-15T05:35:45.226Z,8.27
2023-08-15T05:36:48.872Z,8.50
2023-08-15T05:37:52.587Z,7.07
2023-08-15T05:38:56.356Z,9.07
2023-08-15T05:40:02.477Z,9.20
2023-08-15T05:41:08.020Z,6.90
2023-08-15T05:42:11.888Z,11.48
2023-08-15T05:43:15.721Z,7.57
2023-08-15T05:44:19.425Z,7.72
2023-08-15T05:45:23.207Z,7.85
2023-08-15T05:46:26.963Z,6.90
2023-08-15T05:47:30.739Z,7.10
2023-08-15T05:48:34.560Z,9.20
2023-08-15T05:49:38.261Z,8.80
2023-08-15T05:50:41.972Z,7.97
2023-08-15T05:51:47.457Z,8.33
2023-08-15T05:52:51.159Z,6.88
2023-08-15T05:53:54.842Z,7.50
2023-08-15T05:54:58.760Z,8.43
2023-08-15T05:56:02.495Z,9.38
2023-08-15T05:57:06.534Z,8.50
2023-08-15T05:58:10.472Z,9.88
2023-08-15T05:59:14.151Z,8.48
2023-08-15T06:00:17.966Z,8.65
2023-08-15T06:01:21.780Z,6.93
2023-08-15T06:02:25.550Z,8.37
2023-08-15T06:03:49.512Z,8.05
2023-08-15T06:04:52.911Z,7.07
2023-08-15T06:05:57.978Z,8.98
2023-08-15T06:07:03.316Z,7.93
2023-08-15T06:08:07.514Z,9.60
2023-08-15T06:09:11.263Z,8.68
2023-08-15T06:10:14.913Z,10.02
2023-08-15T06:11:18.594Z,8.38
2023-08-15T06:12:22.266Z,8.65
2023-08-15T06:13:25.916Z,8.13
2023-08-15T06:14:29.665Z,8.15
2023-08-15T06:15:33.397Z,7.53
2023-08-15T06:16:37.067Z,8.65
2023-08-15T06:17:40.798Z,7.68
2023-08-15T06:18:44.671Z,9.63
2023-08-15T06:19:48.484Z,7.32
2023-08-15T06:20:52.135Z,8.60
2023-08-15T06:21:55.821Z,8.68
2023-08-15T06:23:01.172Z,8.02
2023-08-15T06:24:05.206Z,7.47
2023-08-15T06:25:09.660Z,7.75
2023-08-15T06:26:13.349Z,7.40
2023-08-15T06:27:17.068Z,8.43
2023-08-15T06:28:20.754Z,8.43
2023-08-15T06:29:24.597Z,7.27
2023-08-15T06:30:28.836Z,8.80
2023-08-15T06:31:33.640Z,8.10
2023-08-15T06:32:37.388Z,7.57
2023-08-15T06:33:41.072Z,6.85
2023-08-15T06:34:44.751Z,7.90
2023-08-15T06:35:51.227Z,7.97
2023-08-15T06:36:55.634Z,8.63
2023-08-15T06:38:01.044Z,7.50
2023-08-15T06:39:05.038Z,6.95
2023-08-15T06:40:09.923Z,7.20
2023-08-15T06:41:13.967Z,7.22
2023-08-15T06:42:17.648Z,6.93
2023-08-15T06:43:21.338Z,9.00
2023-08-15T06:44:27.143Z,7.25
2023-08-15T06:45:31.292Z,7.63
2023-08-15T06:46:35.019Z,6.90
2023-08-15T06:47:38.721Z,7.75
2023-08-15T06:48:42.815Z,8.57
2023-08-15T06:49:46.496Z,7.35
2023-08-15T06:50:50.219Z,8.20
2023-08-15T06:51:53.953Z,7.55
2023-08-15T06:52:57.688Z,9.02
2023-08-15T06:54:03.039Z,8.75
2023-08-15T06:55:07.463Z,7.45
2023-08-15T06:56:11.174Z,8.33
2023-08-15T06:57:14.823Z,8.52
2023-08-15T06:58:18.729Z,9.23
2023-08-15T06:59:22.448Z,7.68
2023-08-15T07:00:26.205Z,7.07
2023-08-15T07:01:29.901Z,7.83
2023-08-15T07:02:33.612Z,7.90
2023-08-15T07:03:37.441Z,9.05
2023-08-15T07:04:41.282Z,7.45
2023-08-15T07:05:45.381Z,7.68
2023-08-15T07:06:49.060Z,9.27
2023-08-15T07:07:52.689Z,7.28
2023-08-15T07:08:56.401Z,7.88
2023-08-15T07:10:01.784Z,6.90
2023-08-15T07:11:06.456Z,8.80
2023-08-15T07:12:10.535Z,6.67
2023-08-15T07:13:14.228Z,7.40
2023-08-15T07:14:17.986Z,7.30
2023-08-15T07:15:21.657Z,7.45
2023-08-15T07:16:25.432Z,7.30
2023-08-15T07:17:29.209Z,8.70
2023-08-15T07:18:33.029Z,8.40
2023-08-15T07:19:36.779Z,7.63
2023-08-15T07:20:40.532Z,7.95
2023-08-15T07:21:44.203Z,8.02
2023-08-15T07:22:48.042Z,7.10
2023-08-15T07:23:51.758Z,7.00
2023-08-15T07:24:55.573Z,7.28
2023-08-15T07:26:00.897Z,7.18
2023-08-15T07:27:04.773Z,7.88
2023-08-15T07:28:08.580Z,7.83
2023-08-15T07:29:12.631Z,7.53
2023-08-15T07:30:16.418Z,8.50
2023-08-15T07:31:20.289Z,8.05
2023-08-15T07:32:24.395Z,9.10
2023-08-15T07:33:28.489Z,8.23
2023-08-15T07:34:32.213Z,7.85
2023-08-15T07:35:35.959Z,8.15
2023-08-15T07:36:39.800Z,7.70
2023-08-15T07:37:43.547Z,7.00
2023-08-15T07:38:47.186Z,7.57
2023-08-15T07:40:00.311Z,8.35
2023-08-15T07:41:05.679Z,9.75
2023-08-15T07:42:09.665Z,7.82
2023-08-15T07:43:13.443Z,8.10
2023-08-15T07:44:17.170Z,7.50
2023-08-15T07:45:21.009Z,8.73
2023-08-15T07:46:24.832Z,7.63
2023-08-15T07:47:28.791Z,8.57
2023-08-15T07:48:32.517Z,9.10
2023-08-15T07:49:39.147Z,8.87
2023-08-15T07:50:43.389Z,7.47
2023-08-15T07:51:47.153Z,7.78
2023-08-15T07:52:51.384Z,7.18
2023-08-15T07:53:55.177Z,9.00
2023-08-15T07:54:58.857Z,7.63
2023-08-15T07:56:04.368Z,8.38
2023-08-15T07:57:08.034Z,7.60
2023-08-15T07:58:11.733Z,8.52
2023-08-15T07:59:15.419Z,8.55
2023-08-15T08:00:19.482Z,11.20
2023-08-15T08:01:23.214Z,8.23
2023-08-15T08:02:27.093Z,8.38
2023-08-15T08:03:30.822Z,6.80
2023-08-15T08:04:34.462Z,8.82
2023-08-15T08:05:41.079Z,8.47
2023-08-15T08:06:44.823Z,7.25
2023-08-15T08:07:48.646Z,7.00
2023-08-15T08:08:52.396Z,7.80
2023-08-15T08:09:56.201Z,6.53
2023-08-15T08:10:59.843Z,9.63
2023-08-15T08:12:05.488Z,8.40
2023-08-15T08:13:09.255Z,7.53
2023-08-15T08:14:13.100Z,8.82
2023-08-15T08:15:16.799Z,8.55
2023-08-15T08:16:20.542Z,9.83
2023-08-15T08:17:24.544Z,8.48
2023-08-15T08:18:28.308Z,7.32
2023-08-15T08:19:31.965Z,8.38
2023-08-15T08:20:35.654Z,8.15
2023-08-15T08:21:39.349Z,8.57
2023-08-15T08:22:43.089Z,7.38
2023-08-15T08:23:46.810Z,7.13
2023-08-15T08:24:51.295Z,7.53
2023-08-15T08:25:55.043Z,7.82
2023-08-15T08:27:00.772Z,7.80
2023-08-15T08:28:06.746Z,8.13
2023-08-15T08:29:10.476Z,8.45
2023-08-15T08:30:16.090Z,6.70
2023-08-15T08:31:19.806Z,7.28
2023-08-15T08:32:23.775Z,7.13
2023-08-15T08:33:27.681Z,7.55
2023-08-15T08:34:31.417Z,7.22
2023-08-15T08:35:35.085Z,6.88
2023-08-15T08:36:38.803Z,7.80
2023-08-15T08:37:42.668Z,8.57
2023-08-15T08:38:46.358Z,7.15
2023-08-15T08:39:50.068Z,7.03
2023-08-15T08:40:56.169Z,6.13
2023-08-15T08:42:00.070Z,7.22
2023-08-15T08:43:05.518Z,7.50
2023-08-15T08:44:09.429Z,6.03
2023-08-15T08:45:13.829Z,7.93
2023-08-15T08:46:18.439Z,6.20
2023-08-15T08:47:23.289Z,6.80
2023-08-15T08:48:27.342Z,6.17
2023-08-15T08:49:32.199Z,7.82
2023-08-15T08:50:37.094Z,8.38
2023-08-15T08:51:41.514Z,6.88
2023-08-15T08:52:45.778Z,7.57
2023-08-15T08:53:49.499Z,7.80
2023-08-15T08:55:59.816Z,6.53
2023-08-15T08:57:04.574Z,6.53
2023-08-15T08:58:13.745Z,8.88
2023-08-15T08:59:22.762Z,6.50
2023-08-15T09:00:31.424Z,8.63
2023-08-15T09:01:37.286Z,6.95
2023-08-15T09:02:41.251Z,6.18
2023-08-15T09:03:45.067Z,6.88
2023-08-15T09:04:50.660Z,6.43
2023-08-15T09:05:54.402Z,6.40
2023-08-15T09:06:58.201Z,6.32
2023-08-15T09:08:02.861Z,6.30
2023-08-15T09:09:06.885Z,7.65
2023-08-15T09:10:11.144Z,7.23
2023-08-15T09:11:14.936Z,8.35
2023-08-15T09:12:33.769Z,7.07
2023-08-15T09:13:48.027Z,7.72
2023-08-15T09:14:51.749Z,6.03
2023-08-15T09:15:55.616Z,6.53
2023-08-15T09:16:59.306Z,7.65
2023-08-15T09:18:04.517Z,6.20
2023-08-15T09:19:08.279Z,6.30
2023-08-15T09:20:13.684Z,6.32
2023-08-15T09:21:17.363Z,6.53
2023-08-15T09:22:23.742Z,7.00
2023-08-15T09:23:27.483Z,6.43
2023-08-15T09:24:31.161Z,6.50
2023-08-15T09:25:36.538Z,6.53
2023-08-15T09:26:40.793Z,6.30
2023-08-15T09:27:45.422Z,7.90
2023-08-15T09:28:52.107Z,6.97
2023-08-15T09:29:55.775Z,5.82
2023-08-15T09:30:59.475Z,6.93
2023-08-15T09:32:03.290Z,5.63
2023-08-15T09:33:07.161Z,7.68
2023-08-15T09:34:12.031Z,6.63
2023-08-15T09:35:17.482Z,6.55
2023-08-15T09:36:21.229Z,5.93
2023-08-15T09:37:24.869Z,6.60
2023-08-15T09:38:30.120Z,6.47
2023-08-15T09:39:34.170Z,5.60
2023-08-15T09:40:37.896Z,5.72
2023-08-15T09:41:42.916Z,6.35
2023-08-15T09:42:47.116Z,6.70
2023-08-15T09:43:56.048Z,8.05
2023-08-15T09:45:00.124Z,5.90
2023-08-15T09:46:04.103Z,6.72
2023-08-15T09:47:09.057Z,5.75
2023-08-15T09:48:13.502Z,6.00
2023-08-15T09:49:17.863Z,5.93
2023-08-15T09:50:21.584Z,7.13
2023-08-15T09:51:28.009Z,6.32
2023-08-15T09:52:32.650Z,6.70
2023-08-15T09:53:37.460Z,6.50
2023-08-15T09:54:43.342Z,5.57
2023-08-15T09:55:47.114Z,7.28
2023-08-15T09:56:50.867Z,6.75
2023-08-15T09:57:54.540Z,6.53
2023-08-15T09:58:59.917Z,6.07
2023-08-15T10:00:03.905Z,7.18
2023-08-15T10:01:09.187Z,7.65
2023-08-15T10:02:22.210Z,6.38
2023-08-15T10:03:30.837Z,5.63
2023-08-15T10:04:36.434Z,6.13
2023-08-15T10:05:44.459Z,6.03
2023-08-15T10:06:48.500Z,6.47
2023-08-15T10:07:52.298Z,8.02
2023-08-15T10:08:57.098Z,5.88
2023-08-15T10:10:03.498Z,6.10
2023-08-15T10:11:09.453Z,5.95
2023-08-15T10:12:13.472Z,6.13
2023-08-15T10:13:19.018Z,5.80
2023-08-15T10:14:24.753Z,6.18
2023-08-15T10:15:30.376Z,5.30
2023-08-15T10:16:34.265Z,6.38
2023-08-15T10:17:39.091Z,5.43
2023-08-15T10:18:54.313Z,5.28
2023-08-15T10:20:03.838Z,6.15
2023-08-15T10:21:11.524Z,7.00
2023-08-15T10:22:19.325Z,5.60
2023-08-15T10:23:33.365Z,5.82
2023-08-15T10:24:37.092Z,6.35
2023-08-15T10:25:41.937Z,5.90
2023-08-15T10:26:46.475Z,6.30
2023-08-15T10:27:56.501Z,4.90
2023-08-15T10:29:00.194Z,5.45
2023-08-15T10:30:05.956Z,5.47
2023-08-15T10:31:10.170Z,5.97
2023-08-15T10:32:25.307Z,6.40
2023-08-15T10:33:31.856Z,6.30
2023-08-15T10:34:36.284Z,5.97
2023-08-15T10:35:43.280Z,5.68
2023-08-15T10:36:48.104Z,5.35
2023-08-15T10:37:51.893Z,5.20
2023-08-15T10:38:55.592Z,5.82
2023-08-15T10:40:10.224Z,5.57
2023-08-15T10:41:17.645Z,5.40
2023-08-15T10:42:22.207Z,5.82
2023-08-15T10:43:27.574Z,5.97
2023-08-15T10:44:35.408Z,6.70
2023-08-15T10:45:42.812Z,7.07
2023-08-15T10:46:46.637Z,6.32
2023-08-15T10:47:50.334Z,4.75
2023-08-15T10:49:03.838Z,5.50
2023-08-15T10:50:09.640Z,8.65
2023-08-15T10:51:20.913Z,7.55
2023-08-15T10:52:24.655Z,7.20
2023-08-15T10:53:28.748Z,6.32
2023-08-15T10:54:32.543Z,5.60
2023-08-15T10:55:38.322Z,6.25
2023-08-15T10:56:44.010Z,6.93
2023-08-15T10:57:49.957Z,8.95
2023-08-15T10:58:54.113Z,7.05
2023-08-15T10:59:58.878Z,7.23
2023-08-15T11:01:04.853Z,8.77
2023-08-15T11:02:08.772Z,7.43
2023-08-15T11:03:12.584Z,8.25
2023-08-15T11:04:17.698Z,7.05
2023-08-15T11:05:22.598Z,6.83
2023-08-15T11:06:26.584Z,8.70
2023-08-15T11:07:30.445Z,6.72
2023-08-15T11:08:34.179Z,7.32
2023-08-15T11:09:37.891Z,6.70
2023-08-15T11:10:51.286Z,6.27
2023-08-15T11:11:55.167Z,8.02
2023-08-15T11:12:59.075Z,7.10
2023-08-15T11:14:02.767Z,6.65
2023-08-15T11:15:11.356Z,5.97
2023-08-15T11:16:19.315Z,6.60
2023-08-15T11:17:23.497Z,7.05
2023-08-15T11:18:27.740Z,6.88
2023-08-15T11:19:31.580Z,7.00
2023-08-15T11:20:35.845Z,6.28
2023-08-15T11:21:39.581Z,6.47
2023-08-15T11:22:43.272Z,6.68
2023-08-15T11:23:49.368Z,6.40
2023-08-15T11:24:54.130Z,6.50
2023-08-15T11:26:03.514Z,5.60
2023-08-15T11:27:07.403Z,7.03
2023-08-15T11:28:11.122Z,6.85
2023-08-15T11:29:14.976Z,7.82
2023-08-15T11:30:19.166Z,6.00
2023-08-15T11:31:24.822Z,7.32
2023-08-15T11:32:29.450Z,6.67
2023-08-15T11:33:33.803Z,5.28
2023-08-15T11:34:40.088Z,6.07
2023-08-15T11:35:43.819Z,5.45
2023-08-15T11:36:47.803Z,6.35
2023-08-15T11:37:51.552Z,5.67
2023-08-15T11:38:55.336Z,5.10
2023-08-15T11:39:59.054Z,6.35
2023-08-15T11:41:04.905Z,5.60
2023-08-15T11:42:12.774Z,6.07
2023-08-15T11:43:16.776Z,5.17
2023-08-15T11:44:23.208Z,6.40
2023-08-15T11:45:28.521Z,5.32
2023-08-15T11:46:52.611Z,5.50
2023-08-15T11:48:00.090Z,5.53
2023-08-15T11:49:03.940Z,6.00
2023-08-15T11:50:11.447Z,6.13
2023-08-15T11:51:21.640Z,6.05
2023-08-15T11:52:25.651Z,5.38
2023-08-15T11:53:29.647Z,5.40
2023-08-15T11:54:33.561Z,6.43
2023-08-15T11:55:37.400Z,5.28
2023-08-15T11:56:50.666Z,5.63
2023-08-15T11:57:54.824Z,4.80
2023-08-15T11:59:05.819Z,4.93
2023-08-15T12:00:10.902Z,5.00
2023-08-15T12:01:21.736Z,4.85
2023-08-15T12:02:27.219Z,5.18
2023-08-15T12:03:32.100Z,5.32
2023-08-15T12:04:36.643Z,5.68
2023-08-15T12:05:40.550Z,5.13
2023-08-15T12:06:44.487Z,4.35
2023-08-15T12:07:49.533Z,7.43
2023-08-15T12:08:53.728Z,4.75
2023-08-15T12:09:58.336Z,5.93
2023-08-15T12:11:05.522Z,5.20
2023-08-15T12:12:09.559Z,4.75
2023-08-15T12:13:13.368Z,4.68
2023-08-15T12:14:23.654Z,5.30
2023-08-15T12:15:27.511Z,5.38
2023-08-15T12:16:31.360Z,5.37
2023-08-15T12:17:37.353Z,6.28
2023-08-15T12:18:41.098Z,5.07
2023-08-15T12:19:44.902Z,5.05
2023-08-15T12:20:48.617Z,4.72
2023-08-15T12:21:53.210Z,5.53
2023-08-15T12:22:56.972Z,4.15
2023-08-15T12:24:00.869Z,4.72
2023-08-15T12:25:05.019Z,5.32
2023-08-15T12:26:08.950Z,5.20
2023-08-15T12:27:12.645Z,4.57
2023-08-15T12:28:16.437Z,4.82
2023-08-15T12:29:20.150Z,4.60
2023-08-15T12:30:44.307Z,3.90
2023-08-15T12:31:50.807Z,4.35
2023-08-15T12:32:56.452Z,4.50
2023-08-15T12:34:00.233Z,4.25
2023-08-15T12:35:04.047Z,4.40
2023-08-15T12:36:08.178Z,4.28
2023-08-15T12:37:11.999Z,5.45
2023-08-15T12:38:15.753Z,5.13
2023-08-15T12:39:19.584Z,5.10
2023-08-15T12:41:33.120Z,4.63
2023-08-15T12:42:37.293Z,6.22
2023-08-15T12:43:41.019Z,4.10
2023-08-15T12:44:44.841Z,5.05
2023-08-15T12:45:48.618Z,4.68
2023-08-15T12:46:52.397Z,6.10
2023-08-15T12:47:57.843Z,5.15
2023-08-15T12:49:01.569Z,5.67
2023-08-15T12:50:05.505Z,6.43
2023-08-15T12:51:09.280Z,4.88
2023-08-15T12:52:12.994Z,4.85
2023-08-15T12:53:16.738Z,5.60
2023-08-15T12:54:20.602Z,4.53
2023-08-15T12:55:24.582Z,4.68
2023-08-15T12:56:28.290Z,4.85
2023-08-15T12:57:32.031Z,5.15
2023-08-15T12:58:35.751Z,5.38
2023-08-15T12:59:39.428Z,5.00
2023-08-15T13:00:43.336Z,5.53
2023-08-15T13:01:47.207Z,4.85
2023-08-15T13:02:51.309Z,4.55
2023-08-15T13:03:56.729Z,4.60
2023-08-15T13:05:01.943Z,4.60
2023-08-15T13:06:06.008Z,6.13
2023-08-15T13:07:09.658Z,4.82
2023-08-15T13:08:13.434Z,4.55
2023-08-15T13:09:17.282Z,4.97
2023-08-15T13:10:21.828Z,4.90
2023-08-15T13:11:25.900Z,5.95
2023-08-15T13:12:30.044Z,6.13
2023-08-15T13:13:34.395Z,5.55
2023-08-15T13:14:38.225Z,4.90
2023-08-15T13:15:41.946Z,5.63
2023-08-15T13:16:45.877Z,5.88
2023-08-15T13:17:49.795Z,5.50
2023-08-15T13:18:57.479Z,6.60
2023-08-15T13:20:01.577Z,7.82
2023-08-15T13:21:06.149Z,7.33
2023-08-15T13:22:09.846Z,7.38
2023-08-15T13:23:13.623Z,7.10
2023-08-15T13:24:17.375Z,6.22
2023-08-15T13:25:21.232Z,7.55
2023-08-15T13:26:25.178Z,7.57
2023-08-15T13:27:28.929Z,8.50
2023-08-15T13:28:32.623Z,6.88
2023-08-15T13:29:36.453Z,6.45
2023-08-15T13:30:40.404Z,7.15
2023-08-15T13:31:44.311Z,6.40
2023-08-15T13:32:48.037Z,7.28
2023-08-15T13:33:51.753Z,7.03
2023-08-15T13:34:57.064Z,6.07
2023-08-15T13:36:01.126Z,6.97
2023-08-15T13:37:04.793Z,7.47
2023-08-15T13:38:08.549Z,6.77
2023-08-15T13:39:12.262Z,5.97
2023-08-15T13:40:16.378Z,7.00
2023-08-15T13:41:20.120Z,6.15
2023-08-15T13:42:36.168Z,6.47
2023-08-15T13:43:43.328Z,5.87
2023-08-15T13:44:47.000Z,5.90
2023-08-15T13:45:51.756Z,5.50
2023-08-15T13:46:55.558Z,6.18
2023-08-15T13:47:59.732Z,5.82
2023-08-15T13:49:03.533Z,7.27
2023-08-15T13:50:10.165Z,6.38
2023-08-15T13:51:17.325Z,5.80
2023-08-15T13:52:21.232Z,5.97
2023-08-15T13:53:25.175Z,6.82
2023-08-15T13:54:28.961Z,7.57
2023-08-15T13:55:33.313Z,7.55
2023-08-15T13:56:37.056Z,6.72
2023-08-15T13:57:40.923Z,6.35
2023-08-15T13:58:45.161Z,6.80
2023-08-15T13:59:48.934Z,6.10
2023-08-15T14:00:52.885Z,6.90
2023-08-15T14:01:56.730Z,7.72
2023-08-15T14:03:00.502Z,6.93
2023-08-15T14:04:04.410Z,6.80
2023-08-15T14:05:10.528Z,7.57
2023-08-15T14:06:14.262Z,6.50
2023-08-15T14:07:18.178Z,8.30
2023-08-15T14:08:21.888Z,6.95
2023-08-15T14:09:25.602Z,6.95
2023-08-15T14:10:29.387Z,5.60
2023-08-15T14:11:33.153Z,7.22
2023-08-15T14:12:37.018Z,5.88
2023-08-15T14:13:40.714Z,7.30
2023-08-15T14:14:44.371Z,6.63
2023-08-15T14:15:48.056Z,6.77
2023-08-15T14:16:52.684Z,5.90
2023-08-15T14:17:56.470Z,5.85
2023-08-15T14:19:00.206Z,6.72